Nortonsville, Virginia
Current Conditions -  °F | °C
As of 7:53 PM on Wednesday 17 Dec 2014 (Local Time) from KCHO Reporting Station
Clear Clear  
Wind Chill: 41°   Ceiling: Unl
Heat Index: 44°   Visibility: 10mi
Dew Point: 23°   Wind: 6mph
Humidity: 43%   Direction: 300°WNW
Pressure: 30.04"   Gusts: NA
Location:  38.2663°N, 78.5808°W
Report Text: KCHO 180053Z 30005KT 10SM CLR 07/M05 A3004 RMK AO2 SLP171 T00671050
Loading
Personal Weather Stations






























Interactive Weather Map New forecast layout! Learn more

10-Day Weather Forecast

Advertisements
Track Severe Weather on mobile